createdAt,value
2019-02-21T00:02:12.333Z,101765.87
2019-02-21T00:04:40.834Z,101767.83
2019-02-21T00:07:09.330Z,101771.59
2019-02-21T00:09:41.112Z,101771.08
2019-02-21T00:12:09.562Z,101772.16
2019-02-21T00:14:38.004Z,101770.72
2019-02-21T00:17:06.463Z,101771.07
2019-02-21T00:19:35.453Z,101773.58
2019-02-21T00:22:03.933Z,101775.19
2019-02-21T00:24:32.382Z,101777.70
2019-02-21T00:27:00.953Z,101773.41
2019-02-21T00:29:29.406Z,101777.70
2019-02-21T00:31:57.868Z,101775.19
2019-02-21T00:34:26.378Z,101772.33
2019-02-21T00:36:54.863Z,101772.85
2019-02-21T00:39:23.310Z,101760.84
2019-02-21T00:41:51.760Z,101757.08
2019-02-21T00:44:20.210Z,101756.91
2019-02-21T00:46:48.667Z,101755.83
2019-02-21T00:49:17.115Z,101756.53
2019-02-21T00:51:45.551Z,101761.20
2019-02-21T00:54:14.023Z,101762.47
2019-02-21T00:56:42.454Z,101765.50
2019-02-21T00:59:10.887Z,101764.42
2019-02-21T01:01:39.724Z,101767.84
2019-02-21T01:04:08.243Z,101766.23
2019-02-21T01:06:36.789Z,101768.20
2019-02-21T01:09:06.378Z,101765.86
2019-02-21T01:11:34.823Z,101762.82
2019-02-21T01:14:03.471Z,101761.56
2019-02-21T01:16:31.979Z,101762.47
2019-02-21T01:19:00.502Z,101762.99
2019-02-21T01:21:28.932Z,101758.87
2019-02-21T01:23:57.379Z,101762.30
2019-02-21T01:26:25.839Z,101762.47
2019-02-21T01:28:54.386Z,101759.78
2019-02-21T01:31:22.858Z,101754.58
2019-02-21T01:33:51.322Z,101751.34
2019-02-21T01:36:19.787Z,101758.00
2019-02-21T01:38:48.322Z,101766.40
2019-02-21T01:41:16.737Z,101762.45
2019-02-21T01:43:45.244Z,101762.11
2019-02-21T01:46:13.651Z,101763.71
2019-02-21T01:48:42.282Z,101768.73
2019-02-21T01:51:10.727Z,101766.78
2019-02-21T01:53:39.293Z,101760.67
2019-02-21T01:56:08.081Z,101758.52
2019-02-21T01:58:36.743Z,101763.19
2019-02-21T02:01:08.642Z,101765.52
2019-02-21T02:03:35.623Z,101758.67
2019-02-21T02:06:04.057Z,101760.84
2019-02-21T02:08:32.506Z,101773.58
2019-02-21T02:11:01.224Z,101761.92
2019-02-21T02:13:29.700Z,101759.06
2019-02-21T02:15:58.120Z,101766.42
2019-02-21T02:18:26.563Z,101769.46
2019-02-21T02:20:55.002Z,101766.21
2019-02-21T02:23:23.643Z,101767.85
2019-02-21T02:25:52.433Z,101765.69
2019-02-21T02:28:20.853Z,101767.85
2019-02-21T02:30:49.343Z,101765.69
2019-02-21T02:33:17.872Z,101769.09
2019-02-21T02:35:46.358Z,101765.67
2019-02-21T02:38:14.814Z,101768.00
2019-02-21T02:40:43.261Z,101767.13
2019-02-21T02:43:11.800Z,101773.77
2019-02-21T02:45:40.272Z,101767.48
2019-02-21T02:48:08.796Z,101774.28
2019-02-21T02:50:37.337Z,101768.91
2019-02-21T02:53:05.716Z,101773.77
2019-02-21T02:55:34.865Z,101774.12
2019-02-21T02:58:06.383Z,101775.55
2019-02-21T03:00:34.558Z,101779.14
2019-02-21T03:03:03.069Z,101774.28
2019-02-21T03:05:31.603Z,101775.92
2019-02-21T03:08:00.093Z,101779.48
2019-02-21T03:10:28.587Z,101782.91
2019-02-21T03:12:57.119Z,101777.89
2019-02-21T03:15:25.551Z,101781.28
2019-02-21T03:17:54.008Z,101788.30
2019-02-21T03:20:22.463Z,101789.03
2019-02-21T03:22:50.917Z,101787.77
2019-02-21T03:25:19.377Z,101788.48
2019-02-21T03:27:47.821Z,101786.52
2019-02-21T03:30:16.255Z,101780.59
2019-02-21T03:32:44.795Z,101776.09
2019-02-21T03:35:13.348Z,101776.47
2019-02-21T03:37:41.794Z,101776.09
2019-02-21T03:40:11.103Z,101778.60
2019-02-21T03:42:39.573Z,101775.36
2019-02-21T03:45:13.661Z,101768.39
2019-02-21T03:47:42.133Z,101770.91
2019-02-21T03:50:12.008Z,101770.91
2019-02-21T03:52:40.464Z,101770.91
2019-02-21T03:55:09.169Z,101774.50
2019-02-21T03:57:37.736Z,101778.79
2019-02-21T04:00:11.109Z,101774.47
2019-02-21T04:02:39.661Z,101772.52
2019-02-21T04:05:09.096Z,101773.39
2019-02-21T04:07:37.703Z,101773.21
2019-02-21T04:10:08.246Z,101766.58
2019-02-21T04:12:36.733Z,101764.63
2019-02-21T04:15:08.094Z,101761.20
2019-02-21T04:17:36.527Z,101768.39
2019-02-21T04:20:06.842Z,101762.63
2019-02-21T04:22:35.337Z,101766.22
2019-02-21T04:25:04.080Z,101757.61
2019-02-21T04:27:32.539Z,101728.75
2019-02-21T04:30:01.078Z,101752.96
2019-02-21T04:32:29.651Z,101746.33
2019-02-21T04:34:58.320Z,101747.40
2019-02-21T04:37:26.747Z,101739.48
2019-02-21T04:39:55.230Z,101744.16
2019-02-21T04:42:23.686Z,101740.39
2019-02-21T04:44:52.188Z,101735.54
2019-02-21T04:47:20.757Z,101738.05
2019-02-21T04:49:49.233Z,101736.27
2019-02-21T04:52:17.701Z,101732.30
2019-02-21T04:54:46.138Z,101742.55
2019-02-21T04:57:14.735Z,101741.09
2019-02-21T04:59:43.162Z,101731.60
2019-02-21T05:02:11.625Z,101735.37
2019-02-21T05:04:40.064Z,101729.63
2019-02-21T05:07:08.611Z,101740.41
2019-02-21T05:09:37.087Z,101732.14
2019-02-21T05:12:05.521Z,101733.22
2019-02-21T05:14:34.031Z,101729.45
2019-02-21T05:17:02.773Z,101740.58
2019-02-21T05:19:31.198Z,101737.33
2019-02-21T05:21:59.695Z,101738.77
2019-02-21T05:24:28.140Z,101731.41
2019-02-21T05:26:58.241Z,101738.95
2019-02-21T05:29:26.697Z,101743.09
2019-02-21T05:32:02.567Z,101743.80
2019-02-21T05:34:32.719Z,101745.44
2019-02-21T05:37:02.800Z,101742.19
2019-02-21T05:39:39.120Z,101746.31
2019-02-21T05:42:12.206Z,101740.41
2019-02-21T05:44:42.336Z,101737.69
2019-02-21T05:47:12.483Z,101741.67
2019-02-21T05:49:45.497Z,101737.35
2019-02-21T05:52:30.993Z,101739.31
2019-02-21T05:55:01.128Z,101751.34
2019-02-21T05:57:36.904Z,101744.69
2019-02-21T06:00:25.726Z,101757.80
2019-02-21T06:03:05.302Z,101753.13
2019-02-21T06:05:35.384Z,101760.11
2019-02-21T06:08:14.403Z,101760.84
2019-02-21T06:10:53.291Z,101758.16
2019-02-21T06:13:39.959Z,101758.51
2019-02-21T06:16:19.280Z,101761.71
2019-02-21T06:18:55.307Z,101762.45
2019-02-21T06:21:41.138Z,101769.45
2019-02-21T06:24:17.794Z,101769.08
2019-02-21T06:26:50.528Z,101770.50
2019-02-21T06:29:22.443Z,101775.00
2019-02-21T06:31:50.810Z,101771.58
2019-02-21T06:34:19.301Z,101765.13
2019-02-21T06:36:47.967Z,101766.04
2019-02-21T06:39:16.597Z,101768.89
2019-02-21T06:41:45.037Z,101775.70
2019-02-21T06:44:13.472Z,101767.81
2019-02-21T06:46:41.927Z,101775.34
2019-02-21T06:49:10.425Z,101778.03
2019-02-21T06:51:39.002Z,101777.13
2019-02-21T06:54:07.443Z,101780.89
2019-02-21T06:56:35.898Z,101789.50
2019-02-21T06:59:04.375Z,101789.67
2019-02-21T07:01:32.936Z,101797.41
2019-02-21T07:04:01.988Z,101795.60
2019-02-21T07:06:32.233Z,101786.30
2019-02-21T07:09:00.675Z,101781.80
2019-02-21T07:11:29.290Z,101791.66
2019-02-21T07:13:57.804Z,101797.55
2019-02-21T07:16:26.393Z,101800.79
2019-02-21T07:18:54.927Z,101798.63
2019-02-21T07:21:23.956Z,101800.27
2019-02-21T07:23:52.558Z,101803.30
2019-02-21T07:26:20.996Z,101807.98
2019-02-21T07:28:49.516Z,101809.06
2019-02-21T07:31:28.207Z,101805.64
2019-02-21T07:33:48.426Z,101809.45
2019-02-21T07:36:16.929Z,101804.78
2019-02-21T07:38:45.377Z,101806.77
2019-02-21T07:41:13.984Z,101813.59
2019-02-21T07:43:42.779Z,101814.67
2019-02-21T07:46:11.223Z,101815.04
2019-02-21T07:48:39.745Z,101824.00
2019-02-21T07:51:08.248Z,101811.98
2019-02-21T07:53:36.945Z,101819.50
2019-02-21T07:56:05.407Z,101819.70
2019-02-21T07:58:33.837Z,101825.81
2019-02-21T08:01:02.307Z,101829.01
2019-02-21T08:03:43.430Z,101824.00
2019-02-21T08:06:01.090Z,101830.28
2019-02-21T08:08:32.269Z,101836.38
2019-02-21T08:10:59.708Z,101834.38
2019-02-21T08:13:28.288Z,101840.84
2019-02-21T08:15:56.779Z,101844.94
2019-02-21T08:18:25.243Z,101840.80
2019-02-21T08:20:53.688Z,101842.08
2019-02-21T08:23:22.147Z,101843.72
2019-02-21T08:25:50.584Z,101840.68
2019-02-21T08:28:19.083Z,101846.77
2019-02-21T08:30:47.568Z,101839.77
2019-02-21T08:33:17.814Z,101841.38
2019-02-21T08:35:46.291Z,101851.45
2019-02-21T08:38:14.737Z,101846.77
2019-02-21T08:40:43.174Z,101853.77
2019-02-21T08:43:11.618Z,101848.73
2019-02-21T08:45:40.129Z,101854.48
2019-02-21T08:48:08.629Z,101849.27
2019-02-21T08:50:37.094Z,101850.86
2019-02-21T08:53:05.550Z,101849.27
2019-02-21T08:55:34.105Z,101860.94
2019-02-21T08:58:02.596Z,101854.11
2019-02-21T09:00:31.746Z,101865.06
2019-02-21T09:03:00.452Z,101862.00
2019-02-21T09:05:29.143Z,101861.09
2019-02-21T09:07:57.629Z,101863.59
2019-02-21T09:10:27.723Z,101876.34
2019-02-21T09:12:56.460Z,101876.16
2019-02-21T09:15:24.928Z,101881.75
2019-02-21T09:17:54.303Z,101880.16
2019-02-21T09:20:23.046Z,101879.23
2019-02-21T09:22:51.500Z,101884.60
2019-02-21T09:25:20.017Z,101884.97
2019-02-21T09:27:48.553Z,101889.27
2019-02-21T09:30:18.530Z,101888.38
2019-02-21T09:32:47.150Z,101891.78
2019-02-21T09:35:15.753Z,101897.34
2019-02-21T09:37:44.218Z,101896.08
2019-02-21T09:40:14.422Z,101889.56
2019-02-21T09:42:42.934Z,101892.06
2019-02-21T09:45:18.817Z,101891.86
2019-02-21T09:47:47.350Z,101886.27
2019-02-21T09:50:15.817Z,101895.08
2019-02-21T09:52:44.356Z,101887.17
2019-02-21T09:55:15.911Z,101895.08
2019-02-21T09:57:44.455Z,101891.81
2019-02-21T10:00:22.743Z,101884.70
2019-02-21T10:02:54.239Z,101887.06
2019-02-21T10:05:21.652Z,101886.36
2019-02-21T10:07:50.118Z,101871.78
2019-02-21T10:10:21.485Z,101885.95
2019-02-21T10:12:49.954Z,101882.81
2019-02-21T10:15:18.399Z,101884.58
2019-02-21T10:17:46.870Z,101887.08
2019-02-21T10:20:17.451Z,101879.69
2019-02-21T10:22:46.250Z,101888.28
2019-02-21T10:25:22.964Z,101875.69
2019-02-21T10:27:50.467Z,101873.67
2019-02-21T10:30:21.000Z,101871.10
2019-02-21T10:32:49.480Z,101870.28
2019-02-21T10:35:17.921Z,101874.28
2019-02-21T10:37:46.514Z,101865.59
2019-02-21T10:40:17.894Z,101860.06
2019-02-21T10:42:49.202Z,101853.05
2019-02-21T10:45:22.617Z,101845.68
2019-02-21T10:47:51.255Z,101848.30
2019-02-21T10:50:21.474Z,101839.11
2019-02-21T10:52:50.599Z,101834.27
2019-02-21T10:55:19.617Z,101844.70
2019-02-21T10:57:48.262Z,101844.52
2019-02-21T11:00:22.560Z,101836.72
2019-02-21T11:02:51.146Z,101828.44
2019-02-21T11:05:19.723Z,101840.89
2019-02-21T11:07:48.109Z,101836.08
2019-02-21T11:10:19.727Z,101838.95
2019-02-21T11:12:48.225Z,101825.55
2019-02-21T11:15:19.123Z,101827.13
2019-02-21T11:17:47.624Z,101828.26
2019-02-21T11:20:18.358Z,101828.57
2019-02-21T11:22:46.817Z,101833.91
2019-02-21T11:25:15.423Z,101829.94
2019-02-21T11:27:44.258Z,101830.41
2019-02-21T11:30:15.736Z,101829.26
2019-02-21T11:32:44.263Z,101812.94
2019-02-21T11:35:13.648Z,101823.45
2019-02-21T11:37:46.771Z,101835.73
2019-02-21T11:40:17.600Z,101834.98
2019-02-21T11:42:46.644Z,101830.85
2019-02-21T11:45:19.731Z,101829.78
2019-02-21T11:47:48.172Z,101827.84
2019-02-21T11:50:17.889Z,101819.77
2019-02-21T11:52:46.500Z,101814.50
2019-02-21T11:55:18.017Z,101805.73
2019-02-21T11:57:46.451Z,101816.81
2019-02-21T12:00:17.693Z,101803.37
2019-02-21T12:02:46.222Z,101811.53
2019-02-21T12:05:17.865Z,101804.70
2019-02-21T12:07:45.261Z,101800.38
2019-02-21T12:10:14.085Z,101800.33
2019-02-21T12:12:42.692Z,101805.02
2019-02-21T12:15:12.885Z,101799.22
2019-02-21T12:17:42.749Z,101801.16
2019-02-21T12:20:16.779Z,101806.75
2019-02-21T12:22:45.240Z,101798.78
2019-02-21T12:25:16.655Z,101800.80
2019-02-21T12:27:45.243Z,101803.56
2019-02-21T12:30:16.281Z,101804.02
2019-02-21T12:32:44.716Z,101810.66
2019-02-21T12:35:13.244Z,101814.97
2019-02-21T12:37:41.689Z,101813.23
2019-02-21T12:40:15.896Z,101809.72
2019-02-21T12:42:44.723Z,101810.56
2019-02-21T12:45:15.510Z,101817.27
2019-02-21T12:47:50.979Z,101818.23
2019-02-21T12:50:14.924Z,101812.64
2019-02-21T12:52:43.464Z,101816.13
2019-02-21T12:55:12.452Z,101796.63
2019-02-21T12:57:41.135Z,101813.34
2019-02-21T13:00:12.687Z,101814.97
2019-02-21T13:02:41.146Z,101813.08
2019-02-21T13:05:09.765Z,101817.27
2019-02-21T13:07:38.281Z,101818.12
2019-02-21T13:10:12.170Z,101820.81
2019-02-21T13:12:40.679Z,101823.64
2019-02-21T13:15:11.668Z,101820.97
2019-02-21T13:17:40.213Z,101820.27
2019-02-21T13:20:12.023Z,101815.27
2019-02-21T13:22:40.410Z,101809.00
2019-02-21T13:25:14.916Z,101806.63
2019-02-21T13:27:43.105Z,101814.75
2019-02-21T13:30:18.854Z,101810.02
2019-02-21T13:32:47.392Z,101820.27
2019-02-21T13:35:15.854Z,101794.91
2019-02-21T13:37:44.319Z,101829.20
2019-02-21T13:40:21.141Z,101822.69
2019-02-21T13:42:49.193Z,101815.98
2019-02-21T13:45:18.318Z,101823.89
2019-02-21T13:47:46.779Z,101819.30
2019-02-21T13:50:19.369Z,101817.17
2019-02-21T13:52:48.087Z,101823.08
2019-02-21T13:55:16.611Z,101814.80
2019-02-21T13:57:45.129Z,101817.42
2019-02-21T14:00:21.466Z,101824.88
2019-02-21T14:02:49.939Z,101817.42
2019-02-21T14:05:18.419Z,101824.95
2019-02-21T14:07:46.912Z,101825.05
2019-02-21T14:10:15.810Z,101832.12
2019-02-21T14:12:44.642Z,101838.03
2019-02-21T14:15:18.476Z,101825.27
2019-02-21T14:17:47.066Z,101835.45
2019-02-21T14:20:15.683Z,101832.73
2019-02-21T14:22:44.808Z,101841.47
2019-02-21T14:25:13.345Z,101844.50
2019-02-21T14:27:41.818Z,101840.35
2019-02-21T14:30:15.332Z,101844.95
2019-02-21T14:32:43.795Z,101845.03
2019-02-21T14:35:13.211Z,101841.70
2019-02-21T14:37:41.620Z,101838.42
2019-02-21T14:40:12.013Z,101849.16
2019-02-21T14:42:40.695Z,101838.80
2019-02-21T14:45:24.019Z,101855.79
2019-02-21T14:47:52.447Z,101837.90
2019-02-21T14:50:20.892Z,101846.41
2019-02-21T14:52:49.383Z,101844.27
2019-02-21T14:55:18.542Z,101850.63
2019-02-21T14:57:47.067Z,101849.07
2019-02-21T15:00:29.048Z,101860.81
2019-02-21T15:02:57.982Z,101861.91
2019-02-21T15:05:26.673Z,101859.45
2019-02-21T15:07:55.461Z,101858.19
2019-02-21T15:10:24.345Z,101857.80
2019-02-21T15:12:59.172Z,101856.34
2019-02-21T15:15:28.371Z,101868.59
2019-02-21T15:18:06.825Z,101861.45
2019-02-21T15:20:36.379Z,101863.97
2019-02-21T15:22:58.075Z,101862.36
2019-02-21T15:25:26.554Z,101865.59
2019-02-21T15:27:55.081Z,101868.98
2019-02-21T15:30:24.724Z,101864.63
2019-02-21T15:32:53.199Z,101874.19
2019-02-21T15:35:21.645Z,101871.51
2019-02-21T15:37:50.164Z,101874.83
2019-02-21T15:40:18.643Z,101879.45
2019-02-21T15:42:47.120Z,101878.63
2019-02-21T15:45:23.556Z,101877.75
2019-02-21T15:47:51.268Z,101876.14
2019-02-21T15:50:20.402Z,101871.08
2019-02-21T15:52:49.133Z,101872.69
2019-02-21T15:55:19.703Z,101876.12
2019-02-21T15:57:48.166Z,101882.77
2019-02-21T16:00:18.592Z,101875.21
2019-02-21T16:02:47.057Z,101881.51
2019-02-21T16:05:15.556Z,101883.34
2019-02-21T16:07:44.078Z,101881.74
2019-02-21T16:10:20.587Z,101889.16
2019-02-21T16:12:55.959Z,101890.23
2019-02-21T16:15:21.643Z,101878.59
2019-02-21T16:17:50.227Z,101874.09
2019-02-21T16:20:19.947Z,101889.05
2019-02-21T16:22:48.450Z,101885.13
2019-02-21T16:25:19.652Z,101885.29
2019-02-21T16:27:48.168Z,101890.00
2019-02-21T16:30:16.630Z,101887.48
2019-02-21T16:32:45.069Z,101902.76
2019-02-21T16:35:14.752Z,101886.06
2019-02-21T16:37:43.299Z,101887.13
2019-02-21T16:40:17.249Z,101884.27
2019-02-21T16:42:45.954Z,101895.06
2019-02-21T16:45:20.375Z,101888.04
2019-02-21T16:47:48.840Z,101891.28
2019-02-21T16:50:29.353Z,101896.84
2019-02-21T16:52:50.450Z,101902.09
2019-02-21T16:55:21.361Z,101901.72
2019-02-21T16:57:49.797Z,101907.14
2019-02-21T17:00:22.421Z,101913.43
2019-02-21T17:02:51.086Z,101921.86
2019-02-21T17:05:19.866Z,101927.42
2019-02-21T17:07:48.343Z,101927.25
2019-02-21T17:10:17.270Z,101931.55
2019-02-21T17:12:45.797Z,101931.53
2019-02-21T17:15:18.944Z,101938.41
2019-02-21T17:17:47.445Z,101944.34
2019-02-21T17:20:26.135Z,101940.74
2019-02-21T17:22:54.610Z,101948.81
2019-02-21T17:25:23.047Z,101950.06
2019-02-21T17:27:51.711Z,101948.64
2019-02-21T17:30:20.805Z,101953.84
2019-02-21T17:32:49.361Z,101951.83
2019-02-21T17:35:17.813Z,101960.30
2019-02-21T17:37:46.280Z,101958.14
2019-02-21T17:40:23.752Z,101965.86
2019-02-21T17:42:52.201Z,101959.41
2019-02-21T17:45:20.680Z,101962.79
2019-02-21T17:47:49.269Z,101954.89
2019-02-21T17:50:18.733Z,101967.30
2019-02-21T17:52:47.190Z,101968.91
2019-02-21T17:55:16.588Z,101975.58
2019-02-21T17:57:45.137Z,101978.44
2019-02-21T18:00:21.096Z,101975.02
2019-02-21T18:02:49.730Z,101973.59
2019-02-21T18:05:18.569Z,101977.16
2019-02-21T18:07:47.051Z,101976.28
2019-02-21T18:10:16.515Z,101980.92
2019-02-21T18:12:44.955Z,101976.63
2019-02-21T18:15:15.611Z,101981.09
2019-02-21T18:17:44.061Z,101979.84
2019-02-21T18:20:16.403Z,101974.64
2019-02-21T18:22:44.909Z,101976.98
2019-02-21T18:25:21.953Z,101982.91
2019-02-21T18:27:50.894Z,101978.41
2019-02-21T18:30:19.358Z,101980.75
2019-02-21T18:32:47.891Z,101981.66
2019-02-21T18:35:16.476Z,101989.93
2019-02-21T18:37:47.823Z,101993.70
2019-02-21T18:40:26.000Z,101993.70
2019-02-21T18:42:54.446Z,101999.81
2019-02-21T18:45:23.013Z,101991.36
2019-02-21T18:47:51.542Z,101993.35
2019-02-21T18:50:19.979Z,101990.45
2019-02-21T18:52:48.439Z,101993.35
2019-02-21T18:55:17.033Z,101993.53
2019-02-21T18:57:45.496Z,101994.58
2019-02-21T19:00:20.269Z,101991.89
2019-02-21T19:02:48.763Z,102002.84
2019-02-21T19:05:17.280Z,102006.06
2019-02-21T19:07:45.989Z,102013.98
2019-02-21T19:10:19.064Z,102011.30
2019-02-21T19:12:47.506Z,102013.61
2019-02-21T19:15:18.409Z,102009.31
2019-02-21T19:17:46.872Z,102018.84
2019-02-21T19:20:18.195Z,102015.07
2019-02-21T19:22:46.770Z,102005.02
2019-02-21T19:25:15.499Z,102007.53
2019-02-21T19:27:43.981Z,102009.14
2019-02-21T19:30:34.187Z,102012.91
2019-02-21T19:33:02.675Z,102015.42
2019-02-21T19:35:32.653Z,102024.39
2019-02-21T19:38:09.765Z,102027.98
2019-02-21T19:40:33.218Z,102026.73
2019-02-21T19:43:01.870Z,102028.69
2019-02-21T19:45:30.531Z,102029.94
2019-02-21T19:47:59.372Z,102034.63
2019-02-21T19:50:29.332Z,102033.37
2019-02-21T19:52:57.809Z,102040.73
2019-02-21T19:55:26.267Z,102039.13
2019-02-21T19:57:54.788Z,102042.91
2019-02-21T20:00:29.870Z,102045.03
2019-02-21T20:02:58.328Z,102044.51
2019-02-21T20:05:27.706Z,102049.19
2019-02-21T20:07:56.228Z,102046.11
2019-02-21T20:10:25.552Z,102046.68
2019-02-21T20:12:54.787Z,102049.02
2019-02-21T20:15:23.262Z,102052.79
2019-02-21T20:17:51.731Z,102043.08
2019-02-21T20:20:22.731Z,102052.05
2019-02-21T20:22:51.279Z,102055.30
2019-02-21T20:25:19.759Z,102053.66
2019-02-21T20:27:48.260Z,102058.52
2019-02-21T20:30:19.262Z,102067.70
2019-02-21T20:32:47.777Z,102071.65
2019-02-21T20:35:16.279Z,102068.96
2019-02-21T20:37:44.743Z,102074.52
2019-02-21T20:40:13.832Z,102079.93
2019-02-21T20:42:42.368Z,102079.03
2019-02-21T20:45:12.812Z,102075.98
2019-02-21T20:47:42.816Z,102083.15
2019-02-21T20:50:13.168Z,102086.58
2019-02-21T20:52:41.694Z,102092.34
2019-02-21T20:55:13.126Z,102098.28
2019-02-21T20:57:41.659Z,102100.79
2019-02-21T21:00:13.144Z,102096.80
2019-02-21T21:02:41.869Z,102098.80
2019-02-21T21:05:10.558Z,102099.31
2019-02-21T21:07:39.025Z,102098.96
2019-02-21T21:10:11.476Z,102097.87
2019-02-21T21:12:39.893Z,102100.57
2019-02-21T21:15:10.298Z,102101.66
2019-02-21T21:17:38.742Z,102094.64
2019-02-21T21:20:16.790Z,102100.05
2019-02-21T21:22:45.208Z,102090.52
2019-02-21T21:25:18.230Z,102101.31
2019-02-21T21:27:46.690Z,102113.55
2019-02-21T21:30:18.693Z,102103.30
2019-02-21T21:32:47.441Z,102109.59
2019-02-21T21:35:15.887Z,102113.02
2019-02-21T21:37:44.421Z,102111.94
2019-02-21T21:40:15.946Z,102110.89
2019-02-21T21:42:44.453Z,102123.96
2019-02-21T21:45:17.557Z,102123.44
2019-02-21T21:47:46.062Z,102124.86
2019-02-21T21:50:17.704Z,102125.03
2019-02-21T21:52:46.147Z,102132.58
2019-02-21T21:55:15.013Z,102137.44
2019-02-21T21:57:43.683Z,102139.61
2019-02-21T22:00:21.147Z,102142.65
2019-02-21T22:02:49.588Z,102148.42
2019-02-21T22:05:18.240Z,102142.83
2019-02-21T22:07:49.149Z,102143.73
2019-02-21T22:10:16.946Z,102153.27
2019-02-21T22:12:45.396Z,102150.75
2019-02-21T22:15:19.172Z,102154.52
2019-02-21T22:17:47.640Z,102156.13
2019-02-21T22:20:16.309Z,102165.10
2019-02-21T22:22:44.770Z,102168.87
2019-02-21T22:25:14.245Z,102172.42
2019-02-21T22:27:42.885Z,102167.56
2019-02-21T22:30:14.281Z,102172.77
2019-02-21T22:32:42.731Z,102167.38
2019-02-21T22:35:11.210Z,102176.17
2019-02-21T22:37:39.654Z,102167.55
2019-02-21T22:40:10.528Z,102179.21
2019-02-21T22:42:38.991Z,102175.09
2019-02-21T22:45:09.182Z,102182.12
2019-02-21T22:47:37.661Z,102180.30
2019-02-21T22:50:16.480Z,102184.45
2019-02-21T22:52:44.956Z,102190.73
2019-02-21T22:55:13.827Z,102191.61
2019-02-21T22:57:42.338Z,102195.20
2019-02-21T23:00:54.630Z,102192.87
2019-02-21T23:03:25.782Z,102203.66
2019-02-21T23:06:29.112Z,102198.98
2019-02-21T23:08:57.681Z,102196.98
2019-02-21T23:11:26.275Z,102203.81
2019-02-21T23:13:55.832Z,102206.16
2019-02-21T23:16:24.448Z,102214.41
2019-02-21T23:18:52.979Z,102210.13
2019-02-21T23:21:21.513Z,102210.64
2019-02-21T23:23:49.994Z,102205.59
2019-02-21T23:26:18.525Z,102205.75
2019-02-21T23:28:47.003Z,102216.54
2019-02-21T23:31:15.444Z,102214.91
2019-02-21T23:33:57.480Z,102213.70
2019-02-21T23:36:25.948Z,102214.05
2019-02-21T23:38:54.391Z,102212.81
2019-02-21T23:41:22.847Z,102215.16
2019-02-21T23:43:51.286Z,102205.27
2019-02-21T23:46:19.858Z,102207.09
2019-02-21T23:48:48.392Z,102215.72
2019-02-21T23:51:16.832Z,102204.56
2019-02-21T23:53:45.269Z,102212.82
2019-02-21T23:56:13.737Z,102218.03
2019-02-21T23:58:43.033Z,102217.48
